Time;durP1;ratioP1;P1;durP2;ratioP2;P2;SDS_P1;SDS_P2;PMS_P1;PMS_P2;Temp;Humidity;BMP_temperature;BMP_pressure;BME280_temperature;BME280_humidity;BME280_pressure;Samples;Min_cycle;Max_cycle;Signal;HPM_P1;HPM_P2
2022/04/17 00:00:28;;;;;;;32.20;18.52;;;;;;;;;;4975468;28;20030;-63
2022/04/17 00:02:54;;;;;;;33.97;19.95;;;;;;;;;;4980556;28;20160;-63
2022/04/17 00:05:20;;;;;;;35.33;19.75;;;;;;;;;;4981546;28;20026;-63
2022/04/17 00:07:47;;;;;;;32.75;18.85;;;;;;;;;;5025518;28;20709;-63
2022/04/17 00:10:13;;;;;;;37.25;20.17;;;;;;;;;;4973309;28;20932;-63
2022/04/17 00:12:40;;;;;;;35.35;20.35;;;;;;;;;;4989323;28;20030;-63
2022/04/17 00:15:07;;;;;;;32.95;19.48;;;;;;;;;;4979405;28;20035;-63
2022/04/17 00:17:33;;;;;;;35.92;20.38;;;;;;;;;;4978599;28;20065;-63
2022/04/17 00:19:59;;;;;;;41.97;21.55;;;;;;;;;;4985893;28;20031;-63
2022/04/17 00:22:26;;;;;;;36.47;20.58;;;;;;;;;;4974610;28;20092;-63
2022/04/17 00:24:52;;;;;;;40.92;21.00;;;;;;;;;;4981576;28;20480;-63
2022/04/17 00:27:19;;;;;;;42.95;21.83;;;;;;;;;;4981677;28;20052;-63
2022/04/17 00:29:45;;;;;;;38.80;21.58;;;;;;;;;;4974632;28;20530;-63
2022/04/17 00:32:11;;;;;;;47.67;22.98;;;;;;;;;;4987939;28;20408;-63
2022/04/17 00:34:38;;;;;;;44.92;22.02;;;;;;;;;;4979556;28;20030;-63
2022/04/17 00:37:07;;;;;;;40.38;22.50;;;;;;;;;;4982930;28;20039;-63
2022/04/17 00:39:33;;;;;;;39.45;21.73;;;;;;;;;;4986509;28;20449;-63
2022/04/17 00:42:01;;;;;;;37.05;20.15;;;;;;;;;;4976331;28;20114;-63
2022/04/17 00:44:27;;;;;;;38.38;19.60;;;;;;;;;;4988260;28;20070;-63
2022/04/17 00:46:53;;;;;;;35.78;19.58;;;;;;;;;;4981027;28;20280;-63
2022/04/17 00:49:19;;;;;;;38.92;22.15;;;;;;;;;;4990848;28;20052;-63
2022/04/17 00:51:47;;;;;;;38.95;20.40;;;;;;;;;;4978011;28;20030;-63
2022/04/17 00:54:13;;;;;;;41.72;21.63;;;;;;;;;;4988841;28;20079;-63
2022/04/17 00:56:39;;;;;;;40.72;21.92;;;;;;;;;;4978773;28;20045;-63
2022/04/17 00:59:13;;;;;;;45.33;21.10;;;;;;;;;;4982833;28;20035;-63
2022/04/17 01:01:39;;;;;;;41.15;21.10;;;;;;;;;;4986857;28;20038;-63
2022/04/17 01:04:06;;;;;;;37.83;19.95;;;;;;;;;;4975934;28;20034;-63
2022/04/17 01:06:33;;;;;;;40.90;20.27;;;;;;;;;;4987613;28;20457;-63
2022/04/17 01:09:00;;;;;;;37.65;19.65;;;;;;;;;;4981064;28;20023;-63
2022/04/17 01:11:26;;;;;;;37.53;18.88;;;;;;;;;;4982411;28;20019;-64
2022/04/17 01:13:53;;;;;;;33.08;19.10;;;;;;;;;;4987724;28;20042;-63
2022/04/17 01:16:20;;;;;;;36.38;19.30;;;;;;;;;;4975929;28;20031;-63
2022/04/17 01:18:56;;;;;;;39.75;19.00;;;;;;;;;;4985941;28;20058;-63
2022/04/17 01:21:22;;;;;;;41.15;20.95;;;;;;;;;;4983838;28;20034;-63
2022/04/17 01:29:18;;;;;;;33.67;19.02;;;;;;;;;;4982931;28;20042;-63
2022/04/17 01:31:46;;;;;;;40.45;19.10;;;;;;;;;;4978154;28;20042;-63
2022/04/17 01:34:14;;;;;;;38.67;21.20;;;;;;;;;;4988235;28;20038;-64
2022/04/17 01:36:41;;;;;;;37.25;19.60;;;;;;;;;;4978084;28;20109;-64
2022/04/17 01:39:07;;;;;;;34.90;18.85;;;;;;;;;;4983426;28;20034;-63
2022/04/17 01:41:33;;;;;;;34.85;19.52;;;;;;;;;;4973018;28;20035;-63
2022/04/17 01:43:59;;;;;;;41.17;19.63;;;;;;;;;;4971593;28;20034;-63
2022/04/17 01:46:25;;;;;;;32.90;19.00;;;;;;;;;;4991227;28;20376;-63
2022/04/17 01:48:51;;;;;;;35.10;19.30;;;;;;;;;;4985099;28;20031;-64
2022/04/17 01:51:17;;;;;;;34.10;19.25;;;;;;;;;;4982063;28;20022;-63
2022/04/17 01:53:43;;;;;;;40.85;20.55;;;;;;;;;;4978129;28;20031;-63
2022/04/17 01:56:09;;;;;;;38.83;19.85;;;;;;;;;;4987716;28;20044;-63
2022/04/17 01:58:35;;;;;;;41.05;19.83;;;;;;;;;;4976021;28;20460;-63
2022/04/17 02:01:01;;;;;;;39.00;21.60;;;;;;;;;;4983577;28;20091;-63
2022/04/17 02:03:28;;;;;;;41.80;20.90;;;;;;;;;;4983410;28;20045;-63
2022/04/17 02:05:54;;;;;;;40.40;21.55;;;;;;;;;;4976480;28;20050;-64
2022/04/17 02:08:20;;;;;;;42.45;21.33;;;;;;;;;;4973578;28;20062;-63
2022/04/17 02:10:46;;;;;;;39.33;21.63;;;;;;;;;;4991152;28;20031;-63
2022/04/17 02:13:12;;;;;;;38.00;21.20;;;;;;;;;;4990529;28;20388;-63
2022/04/17 02:15:39;;;;;;;38.33;20.90;;;;;;;;;;4978935;28;20046;-63
2022/04/17 02:18:05;;;;;;;44.60;23.77;;;;;;;;;;4987594;28;20096;-63
2022/04/17 02:20:31;;;;;;;38.97;22.00;;;;;;;;;;4972165;28;20027;-63
2022/04/17 02:22:57;;;;;;;40.53;21.77;;;;;;;;;;4978790;28;20022;-63
2022/04/17 02:25:23;;;;;;;45.95;22.55;;;;;;;;;;4980687;28;20026;-63
2022/04/17 02:27:49;;;;;;;40.03;20.70;;;;;;;;;;4985208;28;20398;-63
2022/04/17 02:30:15;;;;;;;43.90;21.38;;;;;;;;;;4974794;28;20062;-64
2022/04/17 02:32:42;;;;;;;38.83;21.02;;;;;;;;;;4986663;28;20045;-63
2022/04/17 02:35:08;;;;;;;40.70;21.25;;;;;;;;;;4979710;28;20026;-63
2022/04/17 02:37:37;;;;;;;44.58;21.95;;;;;;;;;;4989530;28;20031;-63
2022/04/17 02:40:03;;;;;;;43.38;24.08;;;;;;;;;;4990591;28;20034;-63
2022/04/17 02:42:29;;;;;;;43.25;20.10;;;;;;;;;;4986801;28;20041;-63
2022/04/17 02:44:55;;;;;;;42.00;21.08;;;;;;;;;;4977673;28;20387;-63
2022/04/17 02:50:07;;;;;;;39.78;21.33;;;;;;;;;;4987250;28;20078;-63
2022/04/17 02:52:33;;;;;;;43.53;21.70;;;;;;;;;;4989982;28;20010;-64
2022/04/17 02:55:00;;;;;;;41.58;20.17;;;;;;;;;;4983486;28;20535;-63
2022/04/17 02:57:27;;;;;;;44.17;21.58;;;;;;;;;;4981500;28;20035;-63
2022/04/17 02:59:53;;;;;;;40.55;21.45;;;;;;;;;;4989252;28;20491;-63
2022/04/17 03:07:49;;;;;;;41.88;21.02;;;;;;;;;;4984509;28;20464;-63
2022/04/17 03:10:16;;;;;;;37.58;19.83;;;;;;;;;;4973849;28;20472;-63
2022/04/17 03:12:42;;;;;;;39.05;20.20;;;;;;;;;;4986449;28;20026;-63
2022/04/17 03:15:08;;;;;;;39.63;20.60;;;;;;;;;;4978121;28;20549;-63
2022/04/17 03:17:34;;;;;;;42.53;20.65;;;;;;;;;;4981832;28;20082;-63
2022/04/17 03:20:00;;;;;;;38.92;21.63;;;;;;;;;;4975854;28;20031;-63
2022/04/17 03:22:26;;;;;;;41.50;21.65;;;;;;;;;;4986792;28;20117;-63
2022/04/17 03:24:52;;;;;;;36.38;20.73;;;;;;;;;;4976050;28;20076;-63
2022/04/17 03:27:19;;;;;;;43.95;21.55;;;;;;;;;;4981366;28;20381;-63
2022/04/17 03:29:45;;;;;;;37.45;20.48;;;;;;;;;;4983373;28;20385;-63
2022/04/17 03:32:11;;;;;;;35.00;19.33;;;;;;;;;;5020531;28;20034;-63
2022/04/17 03:34:37;;;;;;;41.15;20.10;;;;;;;;;;4978205;28;20034;-63
2022/04/17 03:37:04;;;;;;;38.20;20.15;;;;;;;;;;4982028;28;20095;-63
2022/04/17 03:39:31;;;;;;;42.40;21.38;;;;;;;;;;4973650;28;20023;-63
2022/04/17 03:41:57;;;;;;;36.67;20.92;;;;;;;;;;4981993;28;20065;-63
2022/04/17 03:44:23;;;;;;;43.58;21.60;;;;;;;;;;4980485;28;20076;-65
2022/04/17 03:46:51;;;;;;;38.25;21.38;;;;;;;;;;4978565;28;20037;-66
2022/04/17 03:49:17;;;;;;;41.53;21.48;;;;;;;;;;4978127;28;20110;-65
2022/04/17 03:51:43;;;;;;;42.35;22.00;;;;;;;;;;4978188;28;20027;-65
2022/04/17 03:54:10;;;;;;;45.13;22.10;;;;;;;;;;4978222;28;20101;-65
2022/04/17 03:56:36;;;;;;;39.53;20.17;;;;;;;;;;4980021;28;20112;-66
2022/04/17 03:59:02;;;;;;;45.55;21.98;;;;;;;;;;4981616;28;20033;-65
2022/04/17 04:01:29;;;;;;;43.80;21.08;;;;;;;;;;4979646;28;20022;-65
2022/04/17 04:03:55;;;;;;;40.97;21.98;;;;;;;;;;4976452;28;20395;-65
2022/04/17 04:06:21;;;;;;;41.28;21.40;;;;;;;;;;4982380;28;20441;-65
2022/04/17 04:08:51;;;;;;;42.17;21.95;;;;;;;;;;4981373;28;20049;-65
2022/04/17 04:11:17;;;;;;;46.67;22.73;;;;;;;;;;4983106;28;20030;-65
2022/04/17 04:13:44;;;;;;;40.50;20.65;;;;;;;;;;4992485;28;20034;-65
2022/04/17 04:16:10;;;;;;;46.47;22.85;;;;;;;;;;4978400;28;20195;-65
2022/04/17 04:18:36;;;;;;;38.72;20.50;;;;;;;;;;4989242;28;20113;-63
2022/04/17 04:21:03;;;;;;;42.78;21.15;;;;;;;;;;4979114;28;20034;-63
2022/04/17 04:23:36;;;;;;;40.25;21.80;;;;;;;;;;4983237;28;20031;-63
2022/04/17 04:26:02;;;;;;;53.72;25.50;;;;;;;;;;4987417;28;20031;-64
2022/04/17 04:28:36;;;;;;;43.60;20.60;;;;;;;;;;4976587;28;20031;-63
2022/04/17 04:31:02;;;;;;;38.58;20.52;;;;;;;;;;4987481;28;20510;-63
2022/04/17 04:33:31;;;;;;;43.13;22.38;;;;;;;;;;4982279;28;20102;-63
2022/04/17 04:35:58;;;;;;;49.13;24.10;;;;;;;;;;4980404;28;20057;-65
2022/04/17 04:38:24;;;;;;;43.88;23.08;;;;;;;;;;4975319;28;20027;-66
2022/04/17 04:40:51;;;;;;;47.25;22.35;;;;;;;;;;4976985;28;20071;-65
2022/04/17 04:43:17;;;;;;;44.38;22.08;;;;;;;;;;4985310;28;20384;-65
2022/04/17 04:51:13;;;;;;;48.67;23.85;;;;;;;;;;4978618;28;20035;-66
2022/04/17 04:53:40;;;;;;;52.42;25.13;;;;;;;;;;4982935;28;20102;-66
2022/04/17 04:56:06;;;;;;;49.05;24.88;;;;;;;;;;4978825;28;20046;-66
2022/04/17 04:58:33;;;;;;;45.78;23.73;;;;;;;;;;4988894;28;20100;-66
2022/04/17 05:00:59;;;;;;;50.72;24.00;;;;;;;;;;4977622;28;20031;-66
2022/04/17 05:03:25;;;;;;;48.55;23.95;;;;;;;;;;4973926;28;20019;-65
2022/04/17 05:05:51;;;;;;;46.50;23.08;;;;;;;;;;4980123;28;20046;-65
2022/04/17 05:08:20;;;;;;;46.42;24.60;;;;;;;;;;4973296;28;20031;-65
2022/04/17 05:10:47;;;;;;;51.00;23.75;;;;;;;;;;4987190;28;20046;-65
2022/04/17 05:13:14;;;;;;;47.67;24.42;;;;;;;;;;4978554;28;20389;-66
2022/04/17 05:15:40;;;;;;;48.83;23.92;;;;;;;;;;4982214;28;20034;-65
2022/04/17 05:18:06;;;;;;;44.65;23.67;;;;;;;;;;4979143;28;20496;-65
2022/04/17 05:20:32;;;;;;;47.22;23.45;;;;;;;;;;4986587;28;20118;-66
2022/04/17 05:23:04;;;;;;;53.72;25.30;;;;;;;;;;4976863;28;20029;-66
2022/04/17 05:25:30;;;;;;;47.90;24.17;;;;;;;;;;4980873;28;20023;-66
2022/04/17 05:27:56;;;;;;;49.90;25.23;;;;;;;;;;4980395;28;20027;-66
2022/04/17 05:30:23;;;;;;;47.33;24.20;;;;;;;;;;4977143;28;20031;-66
2022/04/17 05:32:49;;;;;;;56.00;25.55;;;;;;;;;;4987650;28;20037;-66
2022/04/17 05:35:15;;;;;;;58.25;24.52;;;;;;;;;;4981057;28;20537;-66
2022/04/17 05:37:41;;;;;;;47.42;23.17;;;;;;;;;;4987927;28;20030;-66
2022/04/17 05:40:08;;;;;;;55.92;25.23;;;;;;;;;;4972127;28;20499;-66
2022/04/17 05:42:35;;;;;;;46.30;23.23;;;;;;;;;;4989068;28;20469;-66
2022/04/17 05:45:02;;;;;;;44.60;24.30;;;;;;;;;;4991437;28;20023;-66
2022/04/17 05:47:29;;;;;;;47.55;23.05;;;;;;;;;;4997155;28;20030;-66
2022/04/17 05:49:55;;;;;;;46.35;22.58;;;;;;;;;;4982337;28;20042;-66
2022/04/17 05:52:22;;;;;;;44.85;22.50;;;;;;;;;;4977839;28;20023;-66
2022/04/17 05:54:48;;;;;;;46.35;23.23;;;;;;;;;;4974998;28;20022;-66
2022/04/17 05:57:14;;;;;;;43.38;21.63;;;;;;;;;;4988093;28;20062;-66
2022/04/17 05:59:40;;;;;;;48.42;22.95;;;;;;;;;;4989978;28;20035;-66
2022/04/17 06:02:08;;;;;;;43.22;22.30;;;;;;;;;;4983405;28;20054;-66
2022/04/17 06:04:35;;;;;;;41.70;21.30;;;;;;;;;;4986233;28;20493;-66
2022/04/17 06:07:01;;;;;;;46.05;23.02;;;;;;;;;;4990927;28;20091;-66
2022/04/17 06:09:27;;;;;;;49.42;22.55;;;;;;;;;;4976628;28;20031;-66
2022/04/17 06:11:53;;;;;;;45.83;21.65;;;;;;;;;;4971064;28;20060;-66
2022/04/17 06:14:19;;;;;;;45.03;21.20;;;;;;;;;;4984704;28;20033;-66
2022/04/17 06:16:47;;;;;;;44.38;20.80;;;;;;;;;;4978439;28;20526;-66
2022/04/17 06:19:14;;;;;;;44.50;22.30;;;;;;;;;;4979434;28;20433;-65
2022/04/17 06:21:40;;;;;;;41.45;21.63;;;;;;;;;;4982486;28;20035;-66
2022/04/17 06:24:07;;;;;;;38.40;21.02;;;;;;;;;;4975662;28;20368;-65
2022/04/17 06:26:33;;;;;;;40.50;20.15;;;;;;;;;;4977193;28;20037;-66
2022/04/17 06:29:03;;;;;;;44.15;20.52;;;;;;;;;;4972660;28;20499;-65
2022/04/17 06:31:30;;;;;;;44.58;21.98;;;;;;;;;;4980272;28;20023;-64
2022/04/17 06:33:56;;;;;;;35.80;19.30;;;;;;;;;;4985524;28;20029;-64
2022/04/17 06:36:22;;;;;;;43.78;20.88;;;;;;;;;;4976378;28;20476;-64
2022/04/17 06:38:48;;;;;;;40.22;20.60;;;;;;;;;;4975924;28;20023;-64
2022/04/17 06:41:14;;;;;;;47.88;22.42;;;;;;;;;;5023941;28;20429;-64
2022/04/17 06:43:41;;;;;;;38.13;20.95;;;;;;;;;;4980988;28;20054;-64
2022/04/17 06:46:07;;;;;;;40.05;19.42;;;;;;;;;;4972751;28;20031;-64
2022/04/17 06:48:33;;;;;;;43.45;21.42;;;;;;;;;;4984139;28;20411;-64
2022/04/17 06:50:59;;;;;;;37.50;19.38;;;;;;;;;;4974008;28;20114;-64
2022/04/17 06:53:25;;;;;;;36.70;18.98;;;;;;;;;;4984731;28;20035;-64
2022/04/17 06:55:52;;;;;;;36.85;20.88;;;;;;;;;;4981489;28;20050;-64
2022/04/17 06:58:19;;;;;;;37.97;18.63;;;;;;;;;;4981153;28;20109;-64
2022/04/17 07:00:45;;;;;;;41.03;19.98;;;;;;;;;;4978431;28;20061;-64
2022/04/17 07:03:14;;;;;;;38.72;18.45;;;;;;;;;;4987623;28;20041;-64
2022/04/17 07:05:40;;;;;;;40.25;21.02;;;;;;;;;;4981135;28;20014;-65
2022/04/17 07:08:06;;;;;;;33.58;18.13;;;;;;;;;;4974471;28;20027;-64
2022/04/17 07:10:34;;;;;;;32.95;16.45;;;;;;;;;;4988062;28;20042;-64
2022/04/17 07:13:00;;;;;;;34.47;18.63;;;;;;;;;;4983048;28;20039;-64
2022/04/17 07:15:26;;;;;;;29.42;15.82;;;;;;;;;;4984077;28;20030;-64
2022/04/17 07:17:53;;;;;;;30.27;16.00;;;;;;;;;;4973295;28;20057;-65
2022/04/17 07:20:19;;;;;;;26.83;16.10;;;;;;;;;;4971612;28;20445;-62
2022/04/17 07:22:47;;;;;;;23.70;14.60;;;;;;;;;;4971012;28;20026;-62
2022/04/17 07:25:14;;;;;;;26.35;14.23;;;;;;;;;;4976423;28;20015;-62
2022/04/17 07:27:48;;;;;;;25.27;13.88;;;;;;;;;;4986778;28;20075;-62
2022/04/17 07:30:15;;;;;;;29.85;14.32;;;;;;;;;;4988502;28;20112;-62
2022/04/17 07:32:43;;;;;;;26.15;13.88;;;;;;;;;;4987078;28;20046;-62
2022/04/17 07:35:09;;;;;;;24.35;13.95;;;;;;;;;;4984693;28;20479;-62
2022/04/17 07:37:36;;;;;;;26.85;14.05;;;;;;;;;;4983371;28;20081;-62
2022/04/17 07:40:13;;;;;;;21.85;12.70;;;;;;;;;;4987812;28;20038;-63
2022/04/17 07:42:39;;;;;;;22.02;12.15;;;;;;;;;;4988977;28;20068;-63
2022/04/17 07:45:05;;;;;;;18.70;11.50;;;;;;;;;;4983008;28;20031;-63
2022/04/17 07:47:32;;;;;;;21.70;11.82;;;;;;;;;;4982322;28;20027;-63
2022/04/17 07:49:59;;;;;;;19.23;11.77;;;;;;;;;;4984091;28;20045;-63
2022/04/17 07:52:25;;;;;;;16.65;10.30;;;;;;;;;;4982224;28;20468;-63
2022/04/17 07:54:51;;;;;;;18.02;9.68;;;;;;;;;;4980910;28;20033;-68
2022/04/17 07:57:17;;;;;;;16.52;10.25;;;;;;;;;;4984826;28;20436;-62
2022/04/17 07:59:43;;;;;;;14.77;8.68;;;;;;;;;;4978752;28;20038;-62
2022/04/17 08:02:22;;;;;;;15.57;8.90;;;;;;;;;;4977766;28;20030;-63
2022/04/17 08:04:51;;;;;;;15.75;7.80;;;;;;;;;;4977795;28;21513;-63
2022/04/17 08:07:21;;;;;;;12.65;8.10;;;;;;;;;;4986668;28;20065;-62
2022/04/17 08:09:47;;;;;;;12.00;7.50;;;;;;;;;;4985693;28;20062;-63
2022/04/17 08:12:13;;;;;;;13.68;8.50;;;;;;;;;;4985991;28;20037;-62
2022/04/17 08:14:40;;;;;;;13.52;6.90;;;;;;;;;;4978997;28;20038;-62
2022/04/17 08:17:06;;;;;;;14.82;7.20;;;;;;;;;;4980283;28;20096;-62
2022/04/17 08:19:32;;;;;;;11.30;6.82;;;;;;;;;;4986827;28;20034;-62
2022/04/17 08:21:59;;;;;;;15.52;7.05;;;;;;;;;;4984443;28;20033;-62
2022/04/17 08:24:25;;;;;;;10.60;6.32;;;;;;;;;;4983403;28;20429;-62
2022/04/17 08:26:51;;;;;;;10.85;6.43;;;;;;;;;;4978744;28;20077;-62
2022/04/17 08:29:19;;;;;;;9.95;5.82;;;;;;;;;;4988338;28;20037;-62
2022/04/17 08:31:45;;;;;;;8.85;6.05;;;;;;;;;;4977529;28;20057;-63
2022/04/17 08:34:11;;;;;;;9.80;6.13;;;;;;;;;;4982917;28;20027;-63
2022/04/17 08:36:37;;;;;;;7.95;5.53;;;;;;;;;;4984850;28;20421;-63
2022/04/17 08:39:03;;;;;;;6.40;4.28;;;;;;;;;;4976990;28;20030;-63
2022/04/17 08:41:31;;;;;;;7.88;3.92;;;;;;;;;;4987218;28;20034;-63
2022/04/17 08:43:58;;;;;;;5.38;3.55;;;;;;;;;;4975427;28;20031;-63
2022/04/17 08:46:24;;;;;;;4.82;3.15;;;;;;;;;;4981608;28;20064;-63
2022/04/17 08:48:51;;;;;;;6.43;3.60;;;;;;;;;;4980556;28;20042;-63
2022/04/17 08:51:20;;;;;;;6.88;3.80;;;;;;;;;;4974343;28;20053;-63
2022/04/17 08:53:48;;;;;;;4.70;3.20;;;;;;;;;;4983147;28;20077;-63
2022/04/17 08:56:14;;;;;;;5.38;3.70;;;;;;;;;;4972634;28;20054;-63
2022/04/17 08:58:40;;;;;;;7.18;3.85;;;;;;;;;;4984277;28;20027;-62
2022/04/17 09:01:06;;;;;;;5.45;3.15;;;;;;;;;;4976142;28;20022;-63
2022/04/17 09:03:32;;;;;;;8.23;2.92;;;;;;;;;;4976194;28;20448;-63
2022/04/17 09:05:59;;;;;;;5.20;3.15;;;;;;;;;;4976469;28;20031;-63
2022/04/17 09:08:25;;;;;;;6.50;3.60;;;;;;;;;;4978472;28;20030;-63
2022/04/17 09:10:58;;;;;;;4.80;3.20;;;;;;;;;;4980279;28;20035;-63
2022/04/17 09:13:30;;;;;;;4.50;2.40;;;;;;;;;;4986674;28;20042;-63
2022/04/17 09:15:56;;;;;;;7.00;3.25;;;;;;;;;;4978181;28;20034;-63
2022/04/17 09:18:23;;;;;;;7.72;2.90;;;;;;;;;;4972070;28;20031;-63
2022/04/17 09:20:49;;;;;;;6.32;3.00;;;;;;;;;;4972878;28;20435;-63
2022/04/17 09:23:16;;;;;;;8.23;3.15;;;;;;;;;;4974991;28;20038;-63
2022/04/17 09:25:45;;;;;;;5.13;2.92;;;;;;;;;;4986131;28;20034;-63
2022/04/17 09:28:12;;;;;;;4.20;2.40;;;;;;;;;;4983871;28;20504;-63
2022/04/17 09:30:39;;;;;;;4.05;3.00;;;;;;;;;;4980501;28;20449;-63
2022/04/17 09:33:09;;;;;;;4.63;2.83;;;;;;;;;;4984524;28;20054;-62
2022/04/17 09:35:36;;;;;;;11.18;3.00;;;;;;;;;;4978582;28;20071;-62
2022/04/17 09:38:06;;;;;;;5.57;3.40;;;;;;;;;;4977974;28;20437;-62
2022/04/17 09:40:33;;;;;;;5.18;2.88;;;;;;;;;;4978405;28;20119;-62
2022/04/17 09:43:08;;;;;;;5.95;3.20;;;;;;;;;;4980335;28;20106;-63
2022/04/17 09:45:35;;;;;;;6.43;2.80;;;;;;;;;;5004400;28;20026;-62
2022/04/17 09:48:01;;;;;;;5.32;2.50;;;;;;;;;;4980163;28;20062;-62
2022/04/17 09:50:32;;;;;;;4.07;2.70;;;;;;;;;;4980239;28;20027;-62
2022/04/17 09:52:59;;;;;;;6.05;2.55;;;;;;;;;;4978208;28;20030;-63
2022/04/17 09:55:28;;;;;;;4.82;2.95;;;;;;;;;;4981396;28;20043;-63
2022/04/17 09:57:58;;;;;;;5.88;2.90;;;;;;;;;;4974826;28;20041;-63
2022/04/17 10:00:25;;;;;;;6.38;2.75;;;;;;;;;;4985391;28;20038;-63
2022/04/17 10:02:51;;;;;;;3.90;2.47;;;;;;;;;;4983172;28;20117;-63
2022/04/17 10:05:18;;;;;;;7.53;2.97;;;;;;;;;;4996525;28;20122;-62
2022/04/17 10:07:46;;;;;;;7.00;3.40;;;;;;;;;;4983889;28;20014;-62
2022/04/17 10:10:13;;;;;;;4.50;2.83;;;;;;;;;;4979361;28;20038;-62
2022/04/17 10:12:39;;;;;;;4.13;3.00;;;;;;;;;;4973074;28;20772;-62
2022/04/17 10:15:07;;;;;;;6.10;3.60;;;;;;;;;;4982956;28;20079;-62
2022/04/17 10:17:34;;;;;;;8.40;3.47;;;;;;;;;;4979667;28;20037;-62
2022/04/17 10:20:06;;;;;;;6.57;3.50;;;;;;;;;;4977414;28;20031;-62
2022/04/17 10:22:36;;;;;;;6.10;3.38;;;;;;;;;;4971249;28;20138;-63
2022/04/17 10:25:05;;;;;;;5.30;3.38;;;;;;;;;;4976379;28;20034;-62
2022/04/17 10:27:49;;;;;;;8.90;3.90;;;;;;;;;;4977718;28;20080;-63
2022/04/17 10:30:21;;;;;;;4.88;3.05;;;;;;;;;;4974917;28;20034;-63
2022/04/17 10:32:48;;;;;;;5.28;3.63;;;;;;;;;;4977106;28;20042;-63
2022/04/17 10:35:17;;;;;;;5.75;3.40;;;;;;;;;;4971192;28;20034;-63
2022/04/17 10:37:48;;;;;;;4.25;3.03;;;;;;;;;;4977295;28;20485;-63
2022/04/17 10:40:15;;;;;;;5.07;3.00;;;;;;;;;;4973365;28;20113;-62
2022/04/17 10:42:57;;;;;;;5.90;3.25;;;;;;;;;;4976853;28;20022;-62
2022/04/17 10:45:23;;;;;;;5.40;2.83;;;;;;;;;;4977326;28;20042;-63
2022/04/17 10:48:09;;;;;;;7.05;3.22;;;;;;;;;;4976233;28;20105;-63
2022/04/17 10:50:50;;;;;;;5.53;2.65;;;;;;;;;;4978345;28;20428;-63
2022/04/17 10:53:24;;;;;;;5.35;3.40;;;;;;;;;;4971332;28;20023;-62
2022/04/17 10:56:04;;;;;;;7.78;3.25;;;;;;;;;;4990918;28;20141;-63
2022/04/17 10:58:45;;;;;;;6.18;2.50;;;;;;;;;;4979601;28;20075;-62
2022/04/17 11:01:12;;;;;;;7.15;3.28;;;;;;;;;;4974723;28;20506;-62
2022/04/17 11:03:38;;;;;;;6.05;2.70;;;;;;;;;;4979995;28;20061;-62
2022/04/17 11:06:35;;;;;;;4.10;2.78;;;;;;;;;;4976962;28;20569;-62
2022/04/17 11:09:12;;;;;;;6.47;2.85;;;;;;;;;;4973046;28;20057;-62
2022/04/17 11:11:43;;;;;;;5.72;2.40;;;;;;;;;;4978105;28;20038;-62
2022/04/17 11:14:10;;;;;;;5.50;2.70;;;;;;;;;;4980641;28;20055;-63
2022/04/17 11:16:57;;;;;;;5.05;2.90;;;;;;;;;;4985696;28;20058;-62
2022/04/17 11:19:24;;;;;;;4.72;2.72;;;;;;;;;;4974988;28;20033;-62
2022/04/17 11:21:51;;;;;;;4.43;3.42;;;;;;;;;;4978692;28;20023;-62
2022/04/17 11:24:19;;;;;;;5.57;3.22;;;;;;;;;;4977070;28;20031;-63
2022/04/17 11:26:54;;;;;;;6.95;3.60;;;;;;;;;;4977413;28;20030;-63
2022/04/17 11:29:39;;;;;;;5.13;2.80;;;;;;;;;;4981938;28;20054;-62
2022/04/17 11:32:17;;;;;;;7.15;3.75;;;;;;;;;;4976117;28;20381;-62
2022/04/17 11:34:46;;;;;;;5.70;3.20;;;;;;;;;;4972528;28;20031;-63
2022/04/17 11:37:12;;;;;;;4.22;3.10;;;;;;;;;;4975181;28;20438;-63
2022/04/17 11:39:38;;;;;;;4.10;2.95;;;;;;;;;;4975053;28;20483;-63
2022/04/17 11:42:06;;;;;;;5.65;3.10;;;;;;;;;;4972532;28;20031;-63
2022/04/17 11:44:33;;;;;;;5.63;3.03;;;;;;;;;;4976262;28;20033;-63
2022/04/17 11:46:59;;;;;;;5.85;3.20;;;;;;;;;;4974797;28;20030;-63
2022/04/17 11:49:25;;;;;;;4.88;3.28;;;;;;;;;;4973006;28;20105;-63
2022/04/17 11:51:51;;;;;;;3.95;2.75;;;;;;;;;;4974308;28;20050;-62
2022/04/17 11:54:30;;;;;;;5.28;2.85;;;;;;;;;;4972430;28;20379;-64
2022/04/17 11:56:57;;;;;;;6.05;3.28;;;;;;;;;;4971310;28;20050;-63
2022/04/17 11:59:23;;;;;;;8.05;3.92;;;;;;;;;;4975976;28;20033;-63
2022/04/17 12:02:08;;;;;;;9.88;4.22;;;;;;;;;;4975973;28;20457;-63
2022/04/17 12:04:35;;;;;;;6.18;4.40;;;;;;;;;;4979526;28;20488;-63
2022/04/17 12:07:02;;;;;;;11.30;6.82;;;;;;;;;;4976848;28;20027;-63
2022/04/17 12:09:28;;;;;;;5.22;3.30;;;;;;;;;;4982349;28;20121;-64
2022/04/17 12:11:54;;;;;;;5.68;3.85;;;;;;;;;;4979505;28;20106;-63
2022/04/17 12:14:29;;;;;;;8.48;4.72;;;;;;;;;;4978670;28;20045;-63
2022/04/17 12:16:56;;;;;;;8.85;5.10;;;;;;;;;;4978279;28;20018;-63
2022/04/17 12:19:25;;;;;;;9.38;5.05;;;;;;;;;;4977717;28;20038;-63
2022/04/17 12:21:51;;;;;;;7.70;4.93;;;;;;;;;;4971572;28;20027;-63
2022/04/17 12:24:17;;;;;;;7.10;5.20;;;;;;;;;;4973681;28;20030;-63
2022/04/17 12:26:44;;;;;;;8.35;5.35;;;;;;;;;;4980633;28;20034;-63
2022/04/17 12:29:10;;;;;;;17.02;6.03;;;;;;;;;;4979838;28;20495;-63
2022/04/17 12:31:36;;;;;;;9.82;5.93;;;;;;;;;;4984036;28;20034;-63
2022/04/17 12:34:09;;;;;;;15.10;7.35;;;;;;;;;;4981090;28;20042;-63
2022/04/17 12:36:38;;;;;;;17.80;6.85;;;;;;;;;;4983802;28;20041;-64
2022/04/17 12:39:05;;;;;;;12.52;6.80;;;;;;;;;;4982791;28;20042;-63
2022/04/17 12:41:46;;;;;;;12.90;7.40;;;;;;;;;;4980928;28;20045;-63
2022/04/17 12:44:12;;;;;;;13.30;8.32;;;;;;;;;;4980893;28;20034;-64
2022/04/17 12:46:45;;;;;;;18.25;8.98;;;;;;;;;;4976885;28;20094;-63
2022/04/17 12:49:17;;;;;;;16.00;8.93;;;;;;;;;;4978695;28;20456;-63
2022/04/17 12:51:59;;;;;;;13.85;9.02;;;;;;;;;;4983830;28;20109;-64
2022/04/17 12:54:37;;;;;;;18.40;10.35;;;;;;;;;;4977478;28;20369;-64
2022/04/17 12:57:08;;;;;;;22.45;12.63;;;;;;;;;;4983854;28;20422;-64
2022/04/17 12:59:48;;;;;;;31.58;14.75;;;;;;;;;;4979631;28;20074;-63
2022/04/17 13:02:15;;;;;;;29.05;14.65;;;;;;;;;;4979625;28;20038;-63
2022/04/17 13:04:45;;;;;;;26.27;16.00;;;;;;;;;;4973562;28;20026;-63
2022/04/17 13:07:13;;;;;;;32.72;16.92;;;;;;;;;;4979927;28;20023;-63
2022/04/17 13:09:56;;;;;;;37.92;16.67;;;;;;;;;;4981619;28;20031;-64
2022/04/17 13:12:34;;;;;;;29.90;16.75;;;;;;;;;;4980443;28;20035;-63
2022/04/17 13:15:02;;;;;;;35.15;17.35;;;;;;;;;;4979926;28;20031;-63
2022/04/17 13:17:28;;;;;;;40.75;17.90;;;;;;;;;;4978166;28;20031;-63
2022/04/17 13:19:54;;;;;;;34.50;18.02;;;;;;;;;;4977070;28;20038;-63
2022/04/17 13:22:20;;;;;;;40.35;18.40;;;;;;;;;;4980673;28;20027;-63
2022/04/17 13:24:46;;;;;;;39.45;18.85;;;;;;;;;;4977240;28;20103;-65
2022/04/17 13:27:12;;;;;;;33.38;19.08;;;;;;;;;;4973843;28;20023;-65
2022/04/17 13:29:39;;;;;;;37.83;19.83;;;;;;;;;;4981239;28;20041;-65
2022/04/17 13:32:11;;;;;;;33.97;18.38;;;;;;;;;;4981004;28;20173;-65
2022/04/17 13:34:38;;;;;;;33.50;19.13;;;;;;;;;;4975167;28;20117;-65
2022/04/17 13:39:49;;;;;;;39.88;19.58;;;;;;;;;;4984064;28;20031;-65
2022/04/17 13:42:15;;;;;;;40.70;20.90;;;;;;;;;;4982856;28;20042;-65
2022/04/17 13:44:41;;;;;;;41.17;20.75;;;;;;;;;;4983943;28;20034;-65
2022/04/17 13:47:07;;;;;;;51.55;22.42;;;;;;;;;;4981367;28;20071;-65
2022/04/17 13:49:34;;;;;;;41.95;20.63;;;;;;;;;;4980284;28;20034;-65
2022/04/17 13:52:00;;;;;;;45.63;22.00;;;;;;;;;;4980012;28;20027;-65
2022/04/17 13:54:26;;;;;;;41.83;20.75;;;;;;;;;;4980825;28;20037;-65
2022/04/17 13:56:52;;;;;;;42.08;21.58;;;;;;;;;;4977374;28;20137;-65
2022/04/17 13:59:19;;;;;;;46.22;22.70;;;;;;;;;;4984376;28;20033;-65
2022/04/17 14:01:45;;;;;;;49.67;22.40;;;;;;;;;;4973203;28;20100;-65
2022/04/17 14:04:12;;;;;;;49.63;23.58;;;;;;;;;;4981377;28;20030;-65
2022/04/17 14:06:38;;;;;;;46.78;23.55;;;;;;;;;;4979012;28;20096;-65
2022/04/17 14:09:04;;;;;;;50.75;24.23;;;;;;;;;;4977148;28;20072;-65
2022/04/17 14:11:31;;;;;;;41.65;21.15;;;;;;;;;;4995237;28;20073;-65
2022/04/17 14:13:57;;;;;;;46.53;22.92;;;;;;;;;;4979162;28;20031;-64
2022/04/17 14:16:23;;;;;;;44.83;21.75;;;;;;;;;;4977795;28;20227;-64
2022/04/17 14:18:49;;;;;;;50.95;22.15;;;;;;;;;;4982797;28;20383;-64
2022/04/17 14:21:16;;;;;;;49.83;24.58;;;;;;;;;;4976774;28;20023;-64
2022/04/17 14:23:42;;;;;;;45.20;20.58;;;;;;;;;;4980599;28;20026;-64
2022/04/17 14:26:08;;;;;;;49.58;24.77;;;;;;;;;;4978263;28;20031;-64
2022/04/17 14:28:34;;;;;;;46.80;21.98;;;;;;;;;;4977523;28;20027;-64
2022/04/17 14:31:03;;;;;;;50.22;21.45;;;;;;;;;;4982812;28;20031;-64
2022/04/17 14:33:29;;;;;;;48.20;21.52;;;;;;;;;;4979352;28;20027;-64
2022/04/17 14:35:58;;;;;;;40.70;21.85;;;;;;;;;;4982211;28;20053;-64
2022/04/17 14:38:25;;;;;;;50.40;21.38;;;;;;;;;;4981111;28;20116;-64
2022/04/17 14:40:52;;;;;;;43.50;21.77;;;;;;;;;;4979045;28;20030;-64
2022/04/17 14:43:18;;;;;;;44.90;21.27;;;;;;;;;;4977293;28;20054;-64
2022/04/17 14:45:47;;;;;;;44.08;21.13;;;;;;;;;;4975142;28;20035;-64
2022/04/17 14:48:13;;;;;;;43.72;20.10;;;;;;;;;;4970681;28;20035;-64
2022/04/17 14:50:40;;;;;;;44.20;21.67;;;;;;;;;;4976995;28;20030;-64